sensor_id;sensor_type;location;lat;lon;timestamp;P1;durP1;ratioP1;P2;durP2;ratioP2
19257;SDS011;9763;48.780;9.212;2023-07-22T00:00:43;1.70;;;1.30;;
19257;SDS011;9763;48.780;9.212;2023-07-22T00:04:07;1.83;;;1.20;;
19257;SDS011;9763;48.780;9.212;2023-07-22T00:07:31;1.40;;;1.10;;
19257;SDS011;9763;48.780;9.212;2023-07-22T00:10:55;1.47;;;1.17;;
19257;SDS011;9763;48.780;9.212;2023-07-22T00:14:19;1.90;;;1.20;;
19257;SDS011;9763;48.780;9.212;2023-07-22T00:17:43;1.30;;;1.00;;
19257;SDS011;9763;48.780;9.212;2023-07-22T00:21:07;1.90;;;1.40;;
19257;SDS011;9763;48.780;9.212;2023-07-22T00:24:31;1.60;;;1.30;;
19257;SDS011;9763;48.780;9.212;2023-07-22T00:27:55;1.70;;;1.30;;
19257;SDS011;9763;48.780;9.212;2023-07-22T00:31:18;5.20;;;1.83;;
19257;SDS011;9763;48.780;9.212;2023-07-22T00:34:44;1.53;;;1.20;;
19257;SDS011;9763;48.780;9.212;2023-07-22T00:38:08;2.00;;;1.50;;
19257;SDS011;9763;48.780;9.212;2023-07-22T00:41:32;1.50;;;1.13;;
19257;SDS011;9763;48.780;9.212;2023-07-22T00:44:56;1.50;;;1.20;;
19257;SDS011;9763;48.780;9.212;2023-07-22T00:48:19;1.70;;;1.20;;
19257;SDS011;9763;48.780;9.212;2023-07-22T00:51:45;1.80;;;1.30;;
19257;SDS011;9763;48.780;9.212;2023-07-22T00:55:09;1.50;;;1.20;;
19257;SDS011;9763;48.780;9.212;2023-07-22T00:58:33;2.17;;;1.50;;
19257;SDS011;9763;48.780;9.212;2023-07-22T01:01:57;1.87;;;1.23;;
19257;SDS011;9763;48.780;9.212;2023-07-22T01:05:21;1.70;;;1.20;;
19257;SDS011;9763;48.780;9.212;2023-07-22T01:08:46;1.70;;;1.40;;
19257;SDS011;9763;48.780;9.212;2023-07-22T01:12:11;1.83;;;1.47;;
19257;SDS011;9763;48.780;9.212;2023-07-22T01:15:35;2.07;;;1.40;;
19257;SDS011;9763;48.780;9.212;2023-07-22T01:19:01;1.77;;;1.33;;
19257;SDS011;9763;48.780;9.212;2023-07-22T01:22:26;1.60;;;1.40;;
19257;SDS011;9763;48.780;9.212;2023-07-22T01:25:53;1.43;;;1.20;;
19257;SDS011;9763;48.780;9.212;2023-07-22T01:29:18;1.70;;;1.20;;
19257;SDS011;9763;48.780;9.212;2023-07-22T01:32:42;1.60;;;1.13;;
19257;SDS011;9763;48.780;9.212;2023-07-22T01:36:06;1.60;;;1.20;;
19257;SDS011;9763;48.780;9.212;2023-07-22T01:39:30;1.90;;;1.20;;
19257;SDS011;9763;48.780;9.212;2023-07-22T01:42:55;1.67;;;1.10;;
19257;SDS011;9763;48.780;9.212;2023-07-22T01:46:19;1.60;;;1.40;;
19257;SDS011;9763;48.780;9.212;2023-07-22T01:49:43;1.57;;;1.13;;
19257;SDS011;9763;48.780;9.212;2023-07-22T01:53:07;1.47;;;1.20;;
19257;SDS011;9763;48.780;9.212;2023-07-22T01:56:31;1.30;;;1.00;;
19257;SDS011;9763;48.780;9.212;2023-07-22T01:59:56;1.40;;;1.00;;
19257;SDS011;9763;48.780;9.212;2023-07-22T02:03:20;2.43;;;1.53;;
19257;SDS011;9763;48.780;9.212;2023-07-22T02:06:43;1.63;;;1.40;;
19257;SDS011;9763;48.780;9.212;2023-07-22T02:10:07;1.50;;;1.20;;
19257;SDS011;9763;48.780;9.212;2023-07-22T02:13:32;1.63;;;1.10;;
19257;SDS011;9763;48.780;9.212;2023-07-22T02:16:58;1.30;;;0.90;;
19257;SDS011;9763;48.780;9.212;2023-07-22T02:20:22;1.43;;;0.80;;
19257;SDS011;9763;48.780;9.212;2023-07-22T02:23:48;1.50;;;1.20;;
19257;SDS011;9763;48.780;9.212;2023-07-22T02:27:12;2.13;;;1.10;;
19257;SDS011;9763;48.780;9.212;2023-07-22T02:30:36;1.53;;;1.20;;
19257;SDS011;9763;48.780;9.212;2023-07-22T02:34:01;1.40;;;0.90;;
19257;SDS011;9763;48.780;9.212;2023-07-22T02:37:25;1.37;;;0.93;;
19257;SDS011;9763;48.780;9.212;2023-07-22T02:40:48;1.50;;;1.00;;
19257;SDS011;9763;48.780;9.212;2023-07-22T02:44:12;1.40;;;1.10;;
19257;SDS011;9763;48.780;9.212;2023-07-22T02:47:35;1.50;;;1.23;;
19257;SDS011;9763;48.780;9.212;2023-07-22T02:51:03;1.40;;;1.10;;
19257;SDS011;9763;48.780;9.212;2023-07-22T02:54:27;1.90;;;1.00;;
19257;SDS011;9763;48.780;9.212;2023-07-22T02:57:51;1.70;;;1.10;;
19257;SDS011;9763;48.780;9.212;2023-07-22T03:01:15;1.50;;;1.13;;
19257;SDS011;9763;48.780;9.212;2023-07-22T03:04:38;1.40;;;1.17;;
19257;SDS011;9763;48.780;9.212;2023-07-22T03:08:05;1.30;;;0.90;;
19257;SDS011;9763;48.780;9.212;2023-07-22T03:11:29;1.60;;;1.10;;
19257;SDS011;9763;48.780;9.212;2023-07-22T03:14:52;2.37;;;1.33;;
19257;SDS011;9763;48.780;9.212;2023-07-22T03:18:16;1.80;;;1.23;;
19257;SDS011;9763;48.780;9.212;2023-07-22T03:21:41;1.60;;;1.20;;
19257;SDS011;9763;48.780;9.212;2023-07-22T03:25:07;1.40;;;1.20;;
19257;SDS011;9763;48.780;9.212;2023-07-22T03:28:32;1.50;;;1.10;;
19257;SDS011;9763;48.780;9.212;2023-07-22T03:31:55;1.50;;;1.27;;
19257;SDS011;9763;48.780;9.212;2023-07-22T03:35:21;1.50;;;1.30;;
19257;SDS011;9763;48.780;9.212;2023-07-22T03:38:45;1.33;;;0.90;;
19257;SDS011;9763;48.780;9.212;2023-07-22T03:42:10;2.00;;;1.20;;
19257;SDS011;9763;48.780;9.212;2023-07-22T03:45:33;2.50;;;1.10;;
19257;SDS011;9763;48.780;9.212;2023-07-22T03:48:57;1.50;;;1.00;;
19257;SDS011;9763;48.780;9.212;2023-07-22T03:52:22;1.40;;;1.10;;
19257;SDS011;9763;48.780;9.212;2023-07-22T03:55:46;1.70;;;1.20;;
19257;SDS011;9763;48.780;9.212;2023-07-22T03:59:11;1.63;;;1.23;;
19257;SDS011;9763;48.780;9.212;2023-07-22T04:02:34;1.40;;;1.13;;
19257;SDS011;9763;48.780;9.212;2023-07-22T04:05:59;1.67;;;1.33;;
19257;SDS011;9763;48.780;9.212;2023-07-22T04:09:23;1.97;;;1.43;;
19257;SDS011;9763;48.780;9.212;2023-07-22T04:12:47;1.50;;;1.30;;
19257;SDS011;9763;48.780;9.212;2023-07-22T04:16:12;1.80;;;1.50;;
19257;SDS011;9763;48.780;9.212;2023-07-22T04:19:36;1.50;;;1.17;;
19257;SDS011;9763;48.780;9.212;2023-07-22T04:23:00;1.73;;;1.20;;
19257;SDS011;9763;48.780;9.212;2023-07-22T04:26:23;1.83;;;1.30;;
19257;SDS011;9763;48.780;9.212;2023-07-22T04:29:50;1.70;;;1.30;;
19257;SDS011;9763;48.780;9.212;2023-07-22T04:33:14;2.20;;;1.13;;
19257;SDS011;9763;48.780;9.212;2023-07-22T04:36:38;1.70;;;1.20;;
19257;SDS011;9763;48.780;9.212;2023-07-22T04:40:02;1.50;;;1.30;;
19257;SDS011;9763;48.780;9.212;2023-07-22T04:43:30;1.33;;;1.00;;
19257;SDS011;9763;48.780;9.212;2023-07-22T04:46:54;1.93;;;1.40;;
19257;SDS011;9763;48.780;9.212;2023-07-22T04:50:19;1.80;;;1.40;;
19257;SDS011;9763;48.780;9.212;2023-07-22T04:53:44;2.10;;;1.00;;
19257;SDS011;9763;48.780;9.212;2023-07-22T04:57:07;1.60;;;1.20;;
19257;SDS011;9763;48.780;9.212;2023-07-22T05:00:31;1.80;;;1.30;;
19257;SDS011;9763;48.780;9.212;2023-07-22T05:03:55;1.60;;;1.30;;
19257;SDS011;9763;48.780;9.212;2023-07-22T05:07:21;3.30;;;1.30;;
19257;SDS011;9763;48.780;9.212;2023-07-22T05:10:44;1.50;;;1.20;;
19257;SDS011;9763;48.780;9.212;2023-07-22T05:14:09;1.70;;;1.50;;
19257;SDS011;9763;48.780;9.212;2023-07-22T05:17:33;1.80;;;1.40;;
19257;SDS011;9763;48.780;9.212;2023-07-22T05:20:56;1.60;;;1.40;;
19257;SDS011;9763;48.780;9.212;2023-07-22T05:24:21;1.70;;;1.40;;
19257;SDS011;9763;48.780;9.212;2023-07-22T05:27:45;1.50;;;1.37;;
19257;SDS011;9763;48.780;9.212;2023-07-22T05:31:09;1.50;;;1.20;;
19257;SDS011;9763;48.780;9.212;2023-07-22T05:34:33;1.93;;;1.40;;
19257;SDS011;9763;48.780;9.212;2023-07-22T05:37:57;1.80;;;1.30;;
19257;SDS011;9763;48.780;9.212;2023-07-22T05:41:23;1.50;;;1.30;;
19257;SDS011;9763;48.780;9.212;2023-07-22T05:44:48;1.83;;;1.33;;
19257;SDS011;9763;48.780;9.212;2023-07-22T05:48:12;2.20;;;1.30;;
19257;SDS011;9763;48.780;9.212;2023-07-22T05:51:35;4.70;;;1.50;;
19257;SDS011;9763;48.780;9.212;2023-07-22T05:54:59;2.87;;;1.60;;
19257;SDS011;9763;48.780;9.212;2023-07-22T05:58:24;2.17;;;1.40;;
19257;SDS011;9763;48.780;9.212;2023-07-22T06:01:48;1.90;;;1.50;;
19257;SDS011;9763;48.780;9.212;2023-07-22T06:05:12;1.70;;;1.23;;
19257;SDS011;9763;48.780;9.212;2023-07-22T06:08:35;1.70;;;1.27;;
19257;SDS011;9763;48.780;9.212;2023-07-22T06:11:59;1.83;;;1.47;;
19257;SDS011;9763;48.780;9.212;2023-07-22T06:15:24;1.60;;;1.40;;
19257;SDS011;9763;48.780;9.212;2023-07-22T06:18:48;4.23;;;1.50;;
19257;SDS011;9763;48.780;9.212;2023-07-22T06:22:12;1.60;;;1.30;;
19257;SDS011;9763;48.780;9.212;2023-07-22T06:25:36;1.87;;;1.40;;
19257;SDS011;9763;48.780;9.212;2023-07-22T06:29:00;2.40;;;1.70;;
19257;SDS011;9763;48.780;9.212;2023-07-22T06:32:25;1.60;;;1.33;;
19257;SDS011;9763;48.780;9.212;2023-07-22T06:35:52;2.00;;;1.67;;
19257;SDS011;9763;48.780;9.212;2023-07-22T06:39:15;1.50;;;1.10;;
19257;SDS011;9763;48.780;9.212;2023-07-22T06:42:40;3.20;;;1.53;;
19257;SDS011;9763;48.780;9.212;2023-07-22T06:46:03;2.60;;;1.47;;
19257;SDS011;9763;48.780;9.212;2023-07-22T06:49:29;3.47;;;1.50;;
19257;SDS011;9763;48.780;9.212;2023-07-22T06:52:52;2.00;;;1.30;;
19257;SDS011;9763;48.780;9.212;2023-07-22T06:56:16;1.77;;;1.37;;
19257;SDS011;9763;48.780;9.212;2023-07-22T06:59:40;1.60;;;1.30;;
19257;SDS011;9763;48.780;9.212;2023-07-22T07:03:04;1.50;;;1.00;;
19257;SDS011;9763;48.780;9.212;2023-07-22T07:06:29;1.80;;;1.40;;
19257;SDS011;9763;48.780;9.212;2023-07-22T07:09:53;4.33;;;1.50;;
19257;SDS011;9763;48.780;9.212;2023-07-22T07:13:17;2.00;;;1.13;;
19257;SDS011;9763;48.780;9.212;2023-07-22T07:16:41;1.80;;;1.40;;
19257;SDS011;9763;48.780;9.212;2023-07-22T07:20:05;1.70;;;1.17;;
19257;SDS011;9763;48.780;9.212;2023-07-22T07:23:31;2.10;;;1.30;;
19257;SDS011;9763;48.780;9.212;2023-07-22T07:26:55;1.70;;;1.40;;
19257;SDS011;9763;48.780;9.212;2023-07-22T07:30:19;1.50;;;1.20;;
19257;SDS011;9763;48.780;9.212;2023-07-22T07:33:43;1.70;;;1.23;;
19257;SDS011;9763;48.780;9.212;2023-07-22T07:37:06;2.03;;;1.17;;
19257;SDS011;9763;48.780;9.212;2023-07-22T07:40:32;2.73;;;1.43;;
19257;SDS011;9763;48.780;9.212;2023-07-22T07:43:56;1.87;;;1.47;;
19257;SDS011;9763;48.780;9.212;2023-07-22T07:47:20;2.17;;;1.40;;
19257;SDS011;9763;48.780;9.212;2023-07-22T07:50:43;1.70;;;1.37;;
19257;SDS011;9763;48.780;9.212;2023-07-22T07:54:07;1.60;;;1.30;;
19257;SDS011;9763;48.780;9.212;2023-07-22T07:57:32;2.60;;;1.37;;
19257;SDS011;9763;48.780;9.212;2023-07-22T08:00:56;1.90;;;1.50;;
19257;SDS011;9763;48.780;9.212;2023-07-22T08:04:20;1.60;;;1.20;;
19257;SDS011;9763;48.780;9.212;2023-07-22T08:07:45;1.80;;;1.30;;
19257;SDS011;9763;48.780;9.212;2023-07-22T08:11:10;1.60;;;1.13;;
19257;SDS011;9763;48.780;9.212;2023-07-22T08:14:37;2.70;;;1.20;;
19257;SDS011;9763;48.780;9.212;2023-07-22T08:18:01;1.87;;;1.30;;
19257;SDS011;9763;48.780;9.212;2023-07-22T08:21:25;2.20;;;1.20;;
19257;SDS011;9763;48.780;9.212;2023-07-22T08:24:49;1.87;;;1.30;;
19257;SDS011;9763;48.780;9.212;2023-07-22T08:28:13;1.40;;;1.07;;
19257;SDS011;9763;48.780;9.212;2023-07-22T08:31:38;1.57;;;1.20;;
19257;SDS011;9763;48.780;9.212;2023-07-22T08:35:02;1.50;;;1.00;;
19257;SDS011;9763;48.780;9.212;2023-07-22T08:38:27;1.50;;;1.10;;
19257;SDS011;9763;48.780;9.212;2023-07-22T08:41:51;1.80;;;1.10;;
19257;SDS011;9763;48.780;9.212;2023-07-22T08:45:18;1.50;;;1.00;;
19257;SDS011;9763;48.780;9.212;2023-07-22T08:48:46;1.40;;;1.00;;
19257;SDS011;9763;48.780;9.212;2023-07-22T08:52:16;5.33;;;1.40;;
19257;SDS011;9763;48.780;9.212;2023-07-22T08:55:41;1.60;;;1.20;;
19257;SDS011;9763;48.780;9.212;2023-07-22T08:59:06;2.33;;;1.20;;
19257;SDS011;9763;48.780;9.212;2023-07-22T09:02:31;1.30;;;1.00;;
19257;SDS011;9763;48.780;9.212;2023-07-22T09:05:57;1.40;;;1.00;;
19257;SDS011;9763;48.780;9.212;2023-07-22T09:09:22;1.47;;;1.00;;
19257;SDS011;9763;48.780;9.212;2023-07-22T09:12:47;1.70;;;1.27;;
19257;SDS011;9763;48.780;9.212;2023-07-22T09:16:11;1.60;;;1.30;;
19257;SDS011;9763;48.780;9.212;2023-07-22T09:19:38;1.70;;;1.23;;
19257;SDS011;9763;48.780;9.212;2023-07-22T09:23:03;1.50;;;1.10;;
19257;SDS011;9763;48.780;9.212;2023-07-22T09:26:34;1.87;;;1.33;;
19257;SDS011;9763;48.780;9.212;2023-07-22T09:29:58;1.70;;;1.30;;
19257;SDS011;9763;48.780;9.212;2023-07-22T09:33:22;1.50;;;0.93;;
19257;SDS011;9763;48.780;9.212;2023-07-22T09:36:51;2.00;;;1.30;;
19257;SDS011;9763;48.780;9.212;2023-07-22T09:40:19;1.70;;;1.10;;
19257;SDS011;9763;48.780;9.212;2023-07-22T09:43:46;1.60;;;1.30;;
19257;SDS011;9763;48.780;9.212;2023-07-22T09:47:10;1.40;;;0.97;;
19257;SDS011;9763;48.780;9.212;2023-07-22T09:50:35;1.50;;;1.10;;
19257;SDS011;9763;48.780;9.212;2023-07-22T09:54:00;1.80;;;1.33;;
19257;SDS011;9763;48.780;9.212;2023-07-22T09:57:27;1.50;;;1.10;;
19257;SDS011;9763;48.780;9.212;2023-07-22T10:00:51;1.53;;;1.07;;
19257;SDS011;9763;48.780;9.212;2023-07-22T10:04:15;1.50;;;1.00;;
19257;SDS011;9763;48.780;9.212;2023-07-22T10:07:42;1.50;;;1.20;;
19257;SDS011;9763;48.780;9.212;2023-07-22T10:11:08;1.60;;;1.20;;
19257;SDS011;9763;48.780;9.212;2023-07-22T10:14:35;1.50;;;1.10;;
19257;SDS011;9763;48.780;9.212;2023-07-22T10:18:00;1.50;;;1.10;;
19257;SDS011;9763;48.780;9.212;2023-07-22T10:21:25;1.50;;;1.10;;
19257;SDS011;9763;48.780;9.212;2023-07-22T10:24:52;1.60;;;1.00;;
19257;SDS011;9763;48.780;9.212;2023-07-22T10:28:17;1.63;;;1.20;;
19257;SDS011;9763;48.780;9.212;2023-07-22T10:31:46;1.47;;;0.97;;
19257;SDS011;9763;48.780;9.212;2023-07-22T10:35:16;1.70;;;1.40;;
19257;SDS011;9763;48.780;9.212;2023-07-22T10:38:54;1.50;;;1.23;;
19257;SDS011;9763;48.780;9.212;2023-07-22T10:42:24;1.67;;;1.20;;
19257;SDS011;9763;48.780;9.212;2023-07-22T10:45:49;1.43;;;1.00;;
19257;SDS011;9763;48.780;9.212;2023-07-22T10:49:16;2.00;;;1.27;;
19257;SDS011;9763;48.780;9.212;2023-07-22T10:52:41;1.70;;;1.10;;
19257;SDS011;9763;48.780;9.212;2023-07-22T10:56:13;1.53;;;1.13;;
19257;SDS011;9763;48.780;9.212;2023-07-22T10:59:38;1.40;;;1.00;;
19257;SDS011;9763;48.780;9.212;2023-07-22T11:03:13;1.50;;;1.00;;
19257;SDS011;9763;48.780;9.212;2023-07-22T11:06:39;2.23;;;1.20;;
19257;SDS011;9763;48.780;9.212;2023-07-22T11:10:16;1.70;;;1.30;;
19257;SDS011;9763;48.780;9.212;2023-07-22T11:13:42;1.70;;;1.00;;
19257;SDS011;9763;48.780;9.212;2023-07-22T11:17:06;1.40;;;1.00;;
19257;SDS011;9763;48.780;9.212;2023-07-22T11:20:31;1.70;;;1.20;;
19257;SDS011;9763;48.780;9.212;2023-07-22T11:23:58;1.60;;;1.20;;
19257;SDS011;9763;48.780;9.212;2023-07-22T11:27:21;1.60;;;1.20;;
19257;SDS011;9763;48.780;9.212;2023-07-22T11:30:45;2.07;;;1.13;;
19257;SDS011;9763;48.780;9.212;2023-07-22T11:34:09;2.07;;;1.47;;
19257;SDS011;9763;48.780;9.212;2023-07-22T11:37:33;1.80;;;1.20;;
19257;SDS011;9763;48.780;9.212;2023-07-22T11:40:58;1.90;;;1.37;;
19257;SDS011;9763;48.780;9.212;2023-07-22T11:44:26;1.93;;;1.50;;
19257;SDS011;9763;48.780;9.212;2023-07-22T11:47:50;1.63;;;1.30;;
19257;SDS011;9763;48.780;9.212;2023-07-22T11:51:14;1.70;;;1.33;;
19257;SDS011;9763;48.780;9.212;2023-07-22T11:54:41;1.67;;;1.20;;
19257;SDS011;9763;48.780;9.212;2023-07-22T11:58:06;1.70;;;1.40;;
19257;SDS011;9763;48.780;9.212;2023-07-22T12:01:31;1.47;;;1.17;;
19257;SDS011;9763;48.780;9.212;2023-07-22T12:04:56;1.77;;;1.40;;
19257;SDS011;9763;48.780;9.212;2023-07-22T12:08:22;1.70;;;1.20;;
19257;SDS011;9763;48.780;9.212;2023-07-22T12:11:46;1.93;;;1.30;;
19257;SDS011;9763;48.780;9.212;2023-07-22T12:15:12;1.90;;;1.20;;
19257;SDS011;9763;48.780;9.212;2023-07-22T12:18:41;1.50;;;1.13;;
19257;SDS011;9763;48.780;9.212;2023-07-22T12:22:06;1.50;;;1.10;;
19257;SDS011;9763;48.780;9.212;2023-07-22T12:25:32;1.50;;;1.10;;
19257;SDS011;9763;48.780;9.212;2023-07-22T12:28:55;1.50;;;1.10;;
19257;SDS011;9763;48.780;9.212;2023-07-22T12:32:20;2.33;;;1.20;;
19257;SDS011;9763;48.780;9.212;2023-07-22T12:35:44;2.00;;;1.40;;
19257;SDS011;9763;48.780;9.212;2023-07-22T12:39:08;1.70;;;1.17;;
19257;SDS011;9763;48.780;9.212;2023-07-22T12:42:31;1.60;;;1.10;;
19257;SDS011;9763;48.780;9.212;2023-07-22T12:45:55;1.50;;;1.07;;
19257;SDS011;9763;48.780;9.212;2023-07-22T12:49:20;1.40;;;1.20;;
19257;SDS011;9763;48.780;9.212;2023-07-22T12:52:43;1.50;;;1.10;;
19257;SDS011;9763;48.780;9.212;2023-07-22T12:56:07;1.60;;;1.30;;
19257;SDS011;9763;48.780;9.212;2023-07-22T12:59:31;1.50;;;1.10;;
19257;SDS011;9763;48.780;9.212;2023-07-22T13:02:54;1.63;;;1.27;;
19257;SDS011;9763;48.780;9.212;2023-07-22T13:06:20;1.77;;;1.40;;
19257;SDS011;9763;48.780;9.212;2023-07-22T13:09:44;1.80;;;1.50;;
19257;SDS011;9763;48.780;9.212;2023-07-22T13:13:09;2.73;;;1.43;;
19257;SDS011;9763;48.780;9.212;2023-07-22T13:16:33;3.30;;;1.73;;
19257;SDS011;9763;48.780;9.212;2023-07-22T13:19:56;2.23;;;1.73;;
19257;SDS011;9763;48.780;9.212;2023-07-22T13:23:22;2.20;;;1.77;;
19257;SDS011;9763;48.780;9.212;2023-07-22T13:26:45;1.60;;;1.10;;
19257;SDS011;9763;48.780;9.212;2023-07-22T13:30:09;1.60;;;1.30;;
19257;SDS011;9763;48.780;9.212;2023-07-22T13:33:33;2.23;;;1.63;;
19257;SDS011;9763;48.780;9.212;2023-07-22T13:36:56;2.90;;;1.80;;
19257;SDS011;9763;48.780;9.212;2023-07-22T13:40:21;2.10;;;1.80;;
19257;SDS011;9763;48.780;9.212;2023-07-22T13:43:45;2.63;;;2.00;;
19257;SDS011;9763;48.780;9.212;2023-07-22T13:47:09;2.50;;;1.97;;
19257;SDS011;9763;48.780;9.212;2023-07-22T13:50:32;1.70;;;1.60;;
19257;SDS011;9763;48.780;9.212;2023-07-22T13:53:58;2.03;;;1.80;;
19257;SDS011;9763;48.780;9.212;2023-07-22T13:57:23;1.90;;;1.70;;
19257;SDS011;9763;48.780;9.212;2023-07-22T14:00:47;3.50;;;1.73;;
19257;SDS011;9763;48.780;9.212;2023-07-22T14:04:10;1.97;;;1.57;;
19257;SDS011;9763;48.780;9.212;2023-07-22T14:07:34;3.30;;;1.70;;
19257;SDS011;9763;48.780;9.212;2023-07-22T14:10:59;2.20;;;1.80;;
19257;SDS011;9763;48.780;9.212;2023-07-22T14:14:24;1.60;;;1.40;;
19257;SDS011;9763;48.780;9.212;2023-07-22T14:17:50;1.90;;;1.70;;
19257;SDS011;9763;48.780;9.212;2023-07-22T14:21:14;1.80;;;1.47;;
19257;SDS011;9763;48.780;9.212;2023-07-22T14:24:38;1.57;;;1.30;;
19257;SDS011;9763;48.780;9.212;2023-07-22T14:28:01;1.70;;;1.57;;
19257;SDS011;9763;48.780;9.212;2023-07-22T14:31:26;1.80;;;1.43;;
19257;SDS011;9763;48.780;9.212;2023-07-22T14:34:50;2.63;;;1.90;;
19257;SDS011;9763;48.780;9.212;2023-07-22T14:38:14;2.33;;;2.00;;
19257;SDS011;9763;48.780;9.212;2023-07-22T14:41:40;2.40;;;1.67;;
19257;SDS011;9763;48.780;9.212;2023-07-22T14:45:05;2.10;;;1.70;;
19257;SDS011;9763;48.780;9.212;2023-07-22T14:48:31;1.93;;;1.73;;
19257;SDS011;9763;48.780;9.212;2023-07-22T14:51:55;2.10;;;1.23;;
19257;SDS011;9763;48.780;9.212;2023-07-22T14:55:19;2.10;;;1.60;;
19257;SDS011;9763;48.780;9.212;2023-07-22T14:58:43;2.00;;;1.80;;
19257;SDS011;9763;48.780;9.212;2023-07-22T15:02:07;1.90;;;1.50;;
19257;SDS011;9763;48.780;9.212;2023-07-22T15:05:33;1.77;;;1.60;;
19257;SDS011;9763;48.780;9.212;2023-07-22T15:08:57;2.37;;;2.17;;
19257;SDS011;9763;48.780;9.212;2023-07-22T15:12:21;2.10;;;1.90;;
19257;SDS011;9763;48.780;9.212;2023-07-22T15:15:45;2.30;;;1.90;;
19257;SDS011;9763;48.780;9.212;2023-07-22T15:19:09;2.20;;;1.90;;
19257;SDS011;9763;48.780;9.212;2023-07-22T15:22:34;2.33;;;2.13;;
19257;SDS011;9763;48.780;9.212;2023-07-22T15:25:58;2.40;;;2.20;;
19257;SDS011;9763;48.780;9.212;2023-07-22T15:29:21;2.50;;;2.00;;
19257;SDS011;9763;48.780;9.212;2023-07-22T15:32:45;2.30;;;1.87;;
19257;SDS011;9763;48.780;9.212;2023-07-22T15:36:09;2.53;;;1.90;;
19257;SDS011;9763;48.780;9.212;2023-07-22T15:39:34;2.30;;;2.10;;
19257;SDS011;9763;48.780;9.212;2023-07-22T15:42:57;2.33;;;1.73;;
19257;SDS011;9763;48.780;9.212;2023-07-22T15:46:21;2.50;;;2.00;;
19257;SDS011;9763;48.780;9.212;2023-07-22T15:49:45;2.87;;;1.90;;
19257;SDS011;9763;48.780;9.212;2023-07-22T15:53:08;1.97;;;1.77;;
19257;SDS011;9763;48.780;9.212;2023-07-22T15:56:34;3.23;;;2.00;;
19257;SDS011;9763;48.780;9.212;2023-07-22T15:59:58;2.10;;;1.90;;
19257;SDS011;9763;48.780;9.212;2023-07-22T16:03:25;2.57;;;1.90;;
19257;SDS011;9763;48.780;9.212;2023-07-22T16:06:49;2.43;;;2.00;;
19257;SDS011;9763;48.780;9.212;2023-07-22T16:10:13;1.70;;;1.47;;
19257;SDS011;9763;48.780;9.212;2023-07-22T16:13:38;2.80;;;2.17;;
19257;SDS011;9763;48.780;9.212;2023-07-22T16:17:01;2.00;;;1.80;;
19257;SDS011;9763;48.780;9.212;2023-07-22T16:20:25;1.90;;;1.70;;
19257;SDS011;9763;48.780;9.212;2023-07-22T16:23:49;2.93;;;1.93;;
19257;SDS011;9763;48.780;9.212;2023-07-22T16:27:12;2.17;;;1.60;;
19257;SDS011;9763;48.780;9.212;2023-07-22T16:30:38;2.17;;;1.83;;
19257;SDS011;9763;48.780;9.212;2023-07-22T16:34:01;2.10;;;1.77;;
19257;SDS011;9763;48.780;9.212;2023-07-22T16:37:25;3.97;;;1.40;;
19257;SDS011;9763;48.780;9.212;2023-07-22T16:40:48;2.10;;;1.80;;
19257;SDS011;9763;48.780;9.212;2023-07-22T16:44:13;2.20;;;1.70;;
19257;SDS011;9763;48.780;9.212;2023-07-22T16:47:38;1.77;;;1.53;;
19257;SDS011;9763;48.780;9.212;2023-07-22T16:51:01;2.50;;;1.73;;
19257;SDS011;9763;48.780;9.212;2023-07-22T16:54:25;1.80;;;1.50;;
19257;SDS011;9763;48.780;9.212;2023-07-22T16:57:49;2.00;;;1.60;;
19257;SDS011;9763;48.780;9.212;2023-07-22T17:01:13;2.00;;;1.80;;
19257;SDS011;9763;48.780;9.212;2023-07-22T17:04:40;2.60;;;1.77;;
19257;SDS011;9763;48.780;9.212;2023-07-22T17:08:03;2.30;;;1.60;;
19257;SDS011;9763;48.780;9.212;2023-07-22T17:11:27;1.90;;;1.67;;
19257;SDS011;9763;48.780;9.212;2023-07-22T17:14:51;2.07;;;1.43;;
19257;SDS011;9763;48.780;9.212;2023-07-22T17:18:15;2.10;;;1.80;;
19257;SDS011;9763;48.780;9.212;2023-07-22T17:21:40;1.87;;;1.50;;
19257;SDS011;9763;48.780;9.212;2023-07-22T17:25:04;1.90;;;1.50;;
19257;SDS011;9763;48.780;9.212;2023-07-22T17:28:28;2.10;;;1.37;;
19257;SDS011;9763;48.780;9.212;2023-07-22T17:31:52;1.90;;;1.70;;
19257;SDS011;9763;48.780;9.212;2023-07-22T17:35:15;2.00;;;1.60;;
19257;SDS011;9763;48.780;9.212;2023-07-22T17:38:41;2.77;;;2.27;;
19257;SDS011;9763;48.780;9.212;2023-07-22T17:42:04;2.10;;;1.67;;
19257;SDS011;9763;48.780;9.212;2023-07-22T17:45:28;1.90;;;1.47;;
19257;SDS011;9763;48.780;9.212;2023-07-22T17:48:52;1.80;;;1.60;;
19257;SDS011;9763;48.780;9.212;2023-07-22T17:52:16;2.90;;;1.90;;
19257;SDS011;9763;48.780;9.212;2023-07-22T17:55:41;2.37;;;1.80;;
19257;SDS011;9763;48.780;9.212;2023-07-22T17:59:04;2.80;;;1.97;;
19257;SDS011;9763;48.780;9.212;2023-07-22T18:02:28;2.13;;;1.57;;
19257;SDS011;9763;48.780;9.212;2023-07-22T18:05:51;2.50;;;1.90;;
19257;SDS011;9763;48.780;9.212;2023-07-22T18:09:15;2.43;;;1.80;;
19257;SDS011;9763;48.780;9.212;2023-07-22T18:12:40;2.93;;;1.80;;
19257;SDS011;9763;48.780;9.212;2023-07-22T18:16:04;2.00;;;1.70;;
19257;SDS011;9763;48.780;9.212;2023-07-22T18:19:28;2.40;;;2.00;;
19257;SDS011;9763;48.780;9.212;2023-07-22T18:22:51;2.00;;;1.80;;
19257;SDS011;9763;48.780;9.212;2023-07-22T18:26:15;2.00;;;1.77;;
19257;SDS011;9763;48.780;9.212;2023-07-22T18:29:40;1.60;;;1.50;;
19257;SDS011;9763;48.780;9.212;2023-07-22T18:33:04;2.70;;;1.60;;
19257;SDS011;9763;48.780;9.212;2023-07-22T18:36:28;1.90;;;1.53;;
19257;SDS011;9763;48.780;9.212;2023-07-22T18:39:51;2.00;;;1.60;;
19257;SDS011;9763;48.780;9.212;2023-07-22T18:43:15;1.90;;;1.70;;
19257;SDS011;9763;48.780;9.212;2023-07-22T18:46:42;2.03;;;1.70;;
19257;SDS011;9763;48.780;9.212;2023-07-22T18:50:06;2.00;;;1.50;;
19257;SDS011;9763;48.780;9.212;2023-07-22T18:53:30;2.30;;;1.80;;
19257;SDS011;9763;48.780;9.212;2023-07-22T18:56:54;2.00;;;1.70;;
19257;SDS011;9763;48.780;9.212;2023-07-22T19:00:18;2.20;;;2.00;;
19257;SDS011;9763;48.780;9.212;2023-07-22T19:03:43;2.03;;;1.63;;
19257;SDS011;9763;48.780;9.212;2023-07-22T19:07:06;2.13;;;1.60;;
19257;SDS011;9763;48.780;9.212;2023-07-22T19:10:30;2.47;;;1.77;;
19257;SDS011;9763;48.780;9.212;2023-07-22T19:13:54;1.87;;;1.67;;
19257;SDS011;9763;48.780;9.212;2023-07-22T19:17:19;2.10;;;1.87;;
19257;SDS011;9763;48.780;9.212;2023-07-22T19:20:53;2.63;;;1.90;;
19257;SDS011;9763;48.780;9.212;2023-07-22T19:24:18;3.60;;;2.37;;
19257;SDS011;9763;48.780;9.212;2023-07-22T19:27:41;2.00;;;1.67;;
19257;SDS011;9763;48.780;9.212;2023-07-22T19:31:05;1.90;;;1.63;;
19257;SDS011;9763;48.780;9.212;2023-07-22T19:34:29;1.70;;;1.50;;
19257;SDS011;9763;48.780;9.212;2023-07-22T19:37:53;2.00;;;1.70;;
19257;SDS011;9763;48.780;9.212;2023-07-22T19:41:17;2.00;;;1.60;;
19257;SDS011;9763;48.780;9.212;2023-07-22T19:44:41;1.97;;;1.77;;
19257;SDS011;9763;48.780;9.212;2023-07-22T19:48:04;2.40;;;1.77;;
19257;SDS011;9763;48.780;9.212;2023-07-22T19:51:31;2.13;;;1.93;;
19257;SDS011;9763;48.780;9.212;2023-07-22T19:54:56;1.93;;;1.63;;
19257;SDS011;9763;48.780;9.212;2023-07-22T19:58:19;2.07;;;1.77;;
19257;SDS011;9763;48.780;9.212;2023-07-22T20:01:44;1.87;;;1.57;;
19257;SDS011;9763;48.780;9.212;2023-07-22T20:05:08;1.50;;;1.17;;
19257;SDS011;9763;48.780;9.212;2023-07-22T20:08:32;1.80;;;1.60;;
19257;SDS011;9763;48.780;9.212;2023-07-22T20:11:57;2.47;;;1.50;;
19257;SDS011;9763;48.780;9.212;2023-07-22T20:15:20;1.73;;;1.40;;
19257;SDS011;9763;48.780;9.212;2023-07-22T20:18:44;1.60;;;1.40;;
19257;SDS011;9763;48.780;9.212;2023-07-22T20:22:07;1.83;;;1.40;;
19257;SDS011;9763;48.780;9.212;2023-07-22T20:25:33;2.00;;;1.77;;
19257;SDS011;9763;48.780;9.212;2023-07-22T20:29:00;2.00;;;1.80;;
19257;SDS011;9763;48.780;9.212;2023-07-22T20:32:24;2.07;;;1.67;;
19257;SDS011;9763;48.780;9.212;2023-07-22T20:35:54;2.80;;;2.10;;
19257;SDS011;9763;48.780;9.212;2023-07-22T20:39:18;1.90;;;1.60;;
19257;SDS011;9763;48.780;9.212;2023-07-22T20:42:43;1.83;;;1.40;;
19257;SDS011;9763;48.780;9.212;2023-07-22T20:46:08;1.93;;;1.60;;
19257;SDS011;9763;48.780;9.212;2023-07-22T20:49:32;1.90;;;1.50;;